Latest Coastal Weather Observations for Larapuna (Eddystone Point)

IDT60701

Issued at 3:25 pm EDT Monday 20 October 2014 (issued every 10 minutes, with the page automatically refreshed every 10 minutes)

About coastal observations | Map of coastal stations | Coastal observations for TAS | Marine services | Other Formats
Station Details ID: 092045 Name: LARAPUNA (EDDYSTONE POINT) Lat: -40.99 Lon: 148.35 Height: 19.7 m
Data from the previous 72 hours. | See also: Recent months at Larapuna (Eddystone Point)
Date/Time
EDT
Temp

°C
Wind Pressure Rain
since 9am
mm
Weather Cloud Vis
km
Sea
Height
m
Swell
Dir
 
Speed
knots
Gust
knots
hPa Trend Height
m
Period
s
Dir
20/03:00pm 14.0 SE 12 16 1033.8 - 0.0 - - - - - - -
20/02:30pm 14.4 SSE 11 14 1034.0 - 0.0 - - - - - - -
20/02:00pm 14.5 SSE 11 14 1034.2 - 0.0 - - - - - - -
20/01:30pm 14.8 SSE 12 16 1034.3 - 0.0 - - - - - - -
20/01:00pm 14.5 SSE 14 16 1034.3 - 0.0 - - - - - - -
20/12:30pm 14.7 S 14 18 1034.4 - 0.0 - - - - - - -
20/12:00pm 14.4 S 15 18 1034.5 - 0.0 - - - - - - -
20/11:30am 13.9 S 15 19 1034.3 - 0.0 - - - - - - -
20/11:00am 12.9 SSE 17 22 1034.2 - 0.0 - - - - - - -
20/10:30am 12.7 S 19 23 1034.0 - 0.0 - - - - - - -
20/10:00am 12.2 S 21 25 1033.4 - 0.0 - - - - - - -
20/09:30am 11.9 S 18 22 1033.1 - 0.0 - - - - - - -
20/09:00am 10.9 S 18 21 1032.8 - 5.2 - - - - - - -
20/08:30am 10.2 S 17 20 1032.6 - 5.2 - - - - - - -
20/08:00am 9.1 SSW 13 20 1032.6 - 5.2 - - - - - - -
20/07:30am 7.9 SW 14 17 1032.5 - 5.2 - - - - - - -
20/07:00am 7.7 SW 16 19 1031.7 - 5.2 - - - - - - -
20/06:30am 7.1 SSW 15 19 1031.0 - 5.2 - - - - - - -
20/06:00am 6.9 SW 14 16 1030.5 - 5.2 - - - - - - -
20/05:30am 7.2 SSW 14 17 1030.1 - 5.2 - - - - - - -
20/05:00am 7.5 SSW 15 19 1030.0 - 5.2 - - - - - - -
20/04:30am 7.6 SSW 17 23 1029.3 - 5.2 - - - - - - -
20/04:00am 8.0 SSW 17 21 1028.7 - 5.2 - - - - - - -
20/03:30am 8.2 SSW 20 24 1028.5 - 5.2 - - - - - - -
20/03:00am 8.3 SSW 20 23 1028.2 - 5.2 - - - - - - -
20/02:30am 8.7 SSW 20 24 1027.4 - 5.2 - - - - - - -
20/02:00am 8.8 SSW 18 23 1027.0 - 5.2 - - - - - - -
20/01:30am 9.5 S 21 27 1026.7 - 5.2 - - - - - - -
20/01:00am 9.4 S 21 25 1026.3 - 5.2 - - - - - - -
20/12:30am 9.9 S 25 29 1025.7 - 5.2 - - - - - - -
20/12:00am 10.5 S 25 30 1025.1 - 5.2 - - - - - - -
 
Date/Time
EDT
Temp

°C
Wind Pressure Rain
since 9am
mm
Weather Cloud Vis
km
Sea
Height
m
Swell
Dir
 
Speed
knots
Gust
knots
hPa Trend Height
m
Period
s
Dir
19/11:30pm 10.5 S 22 27 1024.5 - 5.2 - - - - - - -
19/11:00pm 10.6 S 19 22 1023.5 - 5.2 - - - - - - -
19/10:30pm 10.4 S 22 29 1022.6 - 5.2 - - - - - - -
19/10:00pm 10.8 S 21 24 1022.0 - 5.2 - - - - - - -
19/09:46pm 11.4 S 21 24 1021.7 - 5.0 - - - - - - -
19/09:30pm 11.3 SSE 11 14 1021.3 - 4.6 - - - - - - -
19/09:00pm 11.5 SSE 15 18 1021.0 - 3.0 Rain - - - - - -
19/08:30pm 11.4 SSE 17 22 1020.3 - 2.2 - - - - - - -
19/08:00pm 12.1 SSE 19 22 1019.7 - 0.4 - - - - - - -
19/07:30pm 12.9 SSE 16 20 1018.8 - 0.2 - - - - - - -
19/07:00pm 13.8 SSE 17 20 1018.4 - 0.0 - - - - - - -
19/06:30pm 14.4 S 11 15 1018.2 - 0.0 - - - - - - -
19/06:00pm 14.9 SSW 11 14 1017.5 - 0.0 - - - - - - -
19/05:30pm 15.8 SSW 17 20 1017.1 - 0.0 - - - - - - -
19/05:00pm 15.9 SW 15 17 1016.4 - 0.0 - - - - - - -
19/04:30pm 16.0 NW 18 25 1014.6 - 0.0 - - - - - - -
19/04:00pm 16.8 WNW 16 22 1015.3 - 0.0 - - - - - - -
19/03:30pm 17.2 NW 16 21 1015.0 - 0.0 - - - - - - -
19/03:01pm 18.6 WNW 16 26 1015.2 - 0.0 - - - - - - -
19/03:00pm 19.0 WNW 16 22 1015.2 - 0.0 - - - - - - -
19/02:30pm 19.8 NW 19 29 1015.0 - 0.0 - - - - - - -
19/02:02pm 20.7 NW 19 29 1015.1 - 0.0 - - - - - - -
19/02:00pm 20.8 WNW 20 29 1015.2 - 0.0 - - - - - - -
19/01:30pm 19.7 NW 20 27 1015.3 - 0.0 - - - - - - -
19/01:00pm 19.3 NW 18 25 1015.6 - 0.0 - - - - - - -
19/12:30pm 18.4 NW 19 29 1015.9 - 0.0 - - - - - - -
19/12:24pm 18.7 NW 19 29 1016.0 - 0.0 - - - - - - -
19/12:00pm 19.6 NW 19 26 1016.3 - 0.0 - - - - - - -
19/11:47am 19.6 NW 16 26 1016.4 - 0.0 - - - - - - -
19/11:30am 19.6 NW 16 22 1016.7 - 0.0 - - - - - - -
19/11:00am 15.6 NNW 17 22 1016.8 - 0.0 - - - - - - -
19/10:30am 15.9 NNW 17 22 1016.9 - 0.0 - - - - - - -
19/10:00am 16.6 NW 18 23 1016.8 - 0.0 - - - - - - -
19/09:30am 16.4 NW 19 25 1016.7 - 0.0 - - - - - - -
19/09:00am 16.4 NW 22 28 1016.7 - 0.0 - - - - - - -
19/08:30am 15.6 NW 23 29 1016.8 - 0.0 - - - - - - -
19/08:00am 15.2 NW 22 29 1016.5 - 0.0 - - - - - - -
19/07:30am 14.4 NW 17 23 1016.6 - 0.0 - - - - - - -
19/07:00am 12.8 NW 12 17 1016.8 - 0.0 - - - - - - -
19/06:30am 12.9 NW 10 12 1017.1 - 0.0 - - - - - - -
19/06:00am 12.7 NW 9 12 1017.2 - 0.0 - - - - - - -
19/05:30am 12.0 WNW 9 11 1017.4 - 0.0 - - - - - - -
19/05:00am 12.3 NW 9 12 1017.4 - 0.0 - - - - - - -
19/04:30am 12.2 WNW 8 10 1017.8 - 0.0 - - - - - - -
19/04:00am 12.7 WNW 9 12 1018.0 - 0.0 - - - - - - -
19/03:30am 12.6 WNW 11 15 1018.4 - 0.0 - - - - - - -
19/03:00am 12.3 NW 11 14 1018.7 - 0.0 - - - - - - -
19/02:30am 12.4 NW 11 14 1019.0 - 0.0 - - - - - - -
19/02:00am 13.0 NW 9 12 1019.8 - 0.0 - - - - - - -
19/01:30am 13.7 NNW 14 19 1020.2 - 0.0 - - - - - - -
19/01:00am 13.7 NNW 15 18 1020.1 - 0.0 - - - - - - -
19/12:30am 13.7 N 11 14 1020.5 - 0.0 - - - - - - -
19/12:00am 13.6 N 14 17 1020.6 - 0.0 - - - - - - -
 
Date/Time
EDT
Temp

°C
Wind Pressure Rain
since 9am
mm
Weather Cloud Vis
km
Sea
Height
m
Swell
Dir
 
Speed
knots
Gust
knots
hPa Trend Height
m
Period
s
Dir
18/11:30pm 13.6 NNW 13 16 1021.4 - 0.0 - - - - - - -
18/11:00pm 13.4 N 11 13 1021.3 - 0.0 - - - - - - -
18/10:30pm 13.3 N 11 13 1021.9 - 0.0 - - - - - - -
18/10:00pm 13.2 N 9 11 1023.0 - 0.0 - - - - - - -
18/09:30pm 13.1 NNW 7 8 1023.6 - 0.0 - - - - - - -
18/09:00pm 13.4 NNW 10 13 1023.5 - 0.0 - - - - - - -
18/08:30pm 13.8 NNW 11 13 1023.5 - 0.0 - - - - - - -
18/08:00pm 13.5 N 10 13 1022.8 - 0.0 - - - - - - -
18/07:30pm 13.7 N 9 11 1023.3 - 0.0 - - - - - - -
18/07:00pm 14.0 NNW 9 12 1023.5 - 0.0 - - - - - - -
18/06:30pm 14.3 NW 10 13 1023.4 - 0.0 - - - - - - -
18/06:00pm 14.6 NW 12 16 1023.1 - 0.0 - - - - - - -
18/05:30pm 15.1 NW 12 17 1022.9 - 0.0 - - - - - - -
18/05:00pm 14.4 N 15 19 1023.0 - 0.0 - - - - - - -
18/04:30pm 15.0 N 17 20 1023.2 - 0.0 - - - - - - -
18/04:00pm 14.7 N 16 20 1023.2 - 0.0 - - - - - - -
18/03:30pm 15.8 N 18 21 1023.5 - 0.0 - - - - - - -
18/03:00pm 15.1 N 13 17 1024.1 - 0.0 - - - - - - -
18/02:30pm 15.1 N 13 17 1024.3 - 0.0 - - - - - - -
18/02:00pm 16.7 N 13 17 1024.5 - 0.0 - - - - - - -
18/01:30pm 15.8 N 15 18 1025.2 - 0.0 - - - - - - -
18/01:00pm 16.3 N 14 17 1025.8 - 0.0 - - - - - - -
18/12:30pm 16.2 N 12 15 1026.3 - 0.0 - - - - - - -
18/12:00pm 16.1 N 12 15 1026.7 - 0.0 - - - - - - -
18/11:30am 15.8 N 10 13 1027.1 - 0.0 - - - - - - -
18/11:00am 15.5 N 11 13 1027.5 - 0.0 - - - - - - -
18/10:30am 15.1 N 9 11 1027.7 - 0.0 - - - - - - -
18/10:00am 14.8 N 10 11 1028.1 - 0.0 - - - - - - -
18/09:30am 14.2 N 9 12 1028.2 - 0.0 - - - - - - -
18/09:00am 14.1 N 9 11 1028.2 - 0.0 - - - - - - -
18/08:30am 13.3 NW 7 9 1028.5 - 0.0 - - - - - - -
18/08:00am 12.2 NW 6 7 1028.4 - 0.0 - - - - - - -
18/07:30am 11.0 NW 6 7 1027.8 - 0.0 - - - - - - -
18/07:00am 9.7 NW 7 8 1027.5 - 0.0 - - - - - - -
18/06:30am 8.8 NW 8 9 1027.4 - 0.0 - - - - - - -
18/06:00am 9.0 NW 8 9 1027.4 - 0.0 - - - - - - -
18/05:30am 9.0 WNW 8 9 1027.7 - 0.0 - - - - - - -
18/05:00am 8.8 WNW 8 8 1027.6 - 0.0 - - - - - - -
18/04:30am 8.9 NW 8 9 1027.4 - 0.0 - - - - - - -
18/04:00am 9.0 NW 8 8 1027.4 - 0.0 - - - - - - -
18/03:30am 9.2 NNW 8 8 1027.4 - 0.0 - - - - - - -
18/03:00am 9.4 NNW 7 8 1027.8 - 0.0 - - - - - - -
18/02:30am 9.1 NW 7 8 1027.8 - 0.0 - - - - - - -
18/02:00am 9.1 NW 7 7 1027.8 - 0.0 - - - - - - -
18/01:30am 9.0 NW 6 7 1028.0 - 0.0 - - - - - - -
18/01:00am 10.2 NNW 7 9 1028.3 - 0.0 - - - - - - -
18/12:30am 11.1 NNW 7 10 1028.1 - 0.0 - - - - - - -
18/12:00am 10.8 NW 6 8 1028.4 - 0.0 - - - - - - -
 
Date/Time
EDT
Temp

°C
Wind Pressure Rain
since 9am
mm
Weather Cloud Vis
km
Sea
Height
m
Swell
Dir
 
Speed
knots
Gust
knots
hPa Trend Height
m
Period
s
Dir
17/11:30pm 12.0 N 9 11 1028.7 - 0.0 - - - - - - -
17/11:00pm 11.8 N 9 11 1028.8 - 0.0 - - - - - - -
17/10:30pm 11.3 N 7 9 1028.7 - 0.0 - - - - - - -
17/10:00pm 10.7 NNW 6 8 1028.7 - 0.0 - - - - - - -
17/09:30pm 11.6 N 6 7 1028.8 - 0.0 - - - - - - -
17/09:00pm 11.6 NNE 7 9 1028.6 - 0.0 - - - - - - -
17/08:30pm 11.5 NNE 7 8 1028.5 - 0.0 - - - - - - -
17/08:00pm 11.6 NNE 9 11 1028.0 - 0.0 - - - - - - -
17/07:30pm 11.3 NNE 7 9 1027.7 - 0.0 - - - - - - -
17/07:00pm 11.4 NE 8 10 1027.6 - 0.0 - - - - - - -
17/06:30pm 11.6 NE 8 9 1027.2 - 0.0 - - - - - - -
17/06:00pm 11.6 NNE 7 9 1027.3 - 0.0 - - - - - - -
17/05:30pm 12.2 NNE 6 8 1027.5 - 0.0 - - - - - - -
17/05:00pm 12.6 NNE 6 8 1027.5 - 0.0 - - - - - - -
17/04:30pm 12.4 NNE 7 8 1027.4 - 0.0 - - - - - - -
17/04:00pm 12.8 NE 8 10 1027.4 - 0.0 - - - - - - -
17/03:30pm 13.2 NE 8 11 1027.3 - 0.0 - - - - - - -

Other Formats:

Comma delimited format used in spreadsheet applications
http://www.bom.gov.au/fwo/IDT60701/IDT60701.94983.axf

JavaScript Object Notation format (JSON) in row-major order
http://www.bom.gov.au/fwo/IDT60701/IDT60701.94983.json